sensor_id;sensor_type;location;lat;lon;timestamp;pressure;altitude;pressure_sealevel;temperature;humidity
58843;BME280;44614;54.356;10.100;2022-08-19T00:00:34;101022.34;;;18.35;88.95
58843;BME280;44614;54.356;10.100;2022-08-19T00:03:00;100979.72;;;18.09;88.74
58843;BME280;44614;54.356;10.100;2022-08-19T00:05:25;101017.38;;;18.32;89.29
58843;BME280;44614;54.356;10.100;2022-08-19T00:07:51;100988.09;;;18.14;89.14
58843;BME280;44614;54.356;10.100;2022-08-19T00:10:18;101014.88;;;18.36;88.61
58843;BME280;44614;54.356;10.100;2022-08-19T00:12:44;100985.31;;;18.19;89.22
58843;BME280;44614;54.356;10.100;2022-08-19T00:15:13;101003.75;;;18.36;88.58
58843;BME280;44614;54.356;10.100;2022-08-19T00:17:40;101008.22;;;18.37;88.92
58843;BME280;44614;54.356;10.100;2022-08-19T00:20:06;101006.53;;;18.36;88.76
58843;BME280;44614;54.356;10.100;2022-08-19T00:22:32;101009.03;;;18.37;91.41
58843;BME280;44614;54.356;10.100;2022-08-19T00:24:58;101007.63;;;18.35;89.97
58843;BME280;44614;54.356;10.100;2022-08-19T00:27:24;101016.84;;;18.40;89.21
58843;BME280;44614;54.356;10.100;2022-08-19T00:29:49;101009.63;;;18.39;89.36
58843;BME280;44614;54.356;10.100;2022-08-19T00:32:16;100997.63;;;18.39;89.20
58843;BME280;44614;54.356;10.100;2022-08-19T00:34:41;100994.56;;;18.35;89.16
58843;BME280;44614;54.356;10.100;2022-08-19T00:37:07;100995.97;;;18.38;89.07
58843;BME280;44614;54.356;10.100;2022-08-19T00:39:32;100995.72;;;18.39;89.20
58843;BME280;44614;54.356;10.100;2022-08-19T00:41:58;100988.47;;;18.38;89.53
58843;BME280;44614;54.356;10.100;2022-08-19T00:44:26;100986.56;;;18.44;88.84
58843;BME280;44614;54.356;10.100;2022-08-19T00:46:53;100980.16;;;18.43;88.61
58843;BME280;44614;54.356;10.100;2022-08-19T00:49:23;100975.97;;;18.41;89.08
58843;BME280;44614;54.356;10.100;2022-08-19T00:51:52;101010.44;;;18.40;89.28
58843;BME280;44614;54.356;10.100;2022-08-19T00:54:18;100993.72;;;18.35;89.80
58843;BME280;44614;54.356;10.100;2022-08-19T00:56:45;100998.75;;;18.33;90.21
58843;BME280;44614;54.356;10.100;2022-08-19T00:59:13;100995.38;;;18.31;90.22
58843;BME280;44614;54.356;10.100;2022-08-19T01:01:41;100982.59;;;18.24;89.85
58843;BME280;44614;54.356;10.100;2022-08-19T01:04:07;100984.84;;;18.33;90.27
58843;BME280;44614;54.356;10.100;2022-08-19T01:06:35;100984.84;;;18.33;90.16
58843;BME280;44614;54.356;10.100;2022-08-19T01:09:02;100976.22;;;18.34;90.04
58843;BME280;44614;54.356;10.100;2022-08-19T01:11:29;100970.41;;;18.36;90.06
58843;BME280;44614;54.356;10.100;2022-08-19T01:13:56;100970.66;;;18.34;90.61
58843;BME280;44614;54.356;10.100;2022-08-19T01:16:24;100974.00;;;18.36;90.26
58843;BME280;44614;54.356;10.100;2022-08-19T01:18:50;100971.78;;;18.38;90.12
58843;BME280;44614;54.356;10.100;2022-08-19T01:21:29;100942.53;;;18.20;90.67
58843;BME280;44614;54.356;10.100;2022-08-19T01:23:56;100944.75;;;18.18;90.88
58843;BME280;44614;54.356;10.100;2022-08-19T01:26:23;100960.91;;;18.26;92.16
58843;BME280;44614;54.356;10.100;2022-08-19T01:28:51;100957.00;;;18.27;91.40
58843;BME280;44614;54.356;10.100;2022-08-19T01:31:21;100962.84;;;18.31;90.93
58843;BME280;44614;54.356;10.100;2022-08-19T01:33:48;100961.47;;;18.34;90.57
58843;BME280;44614;54.356;10.100;2022-08-19T01:36:23;100959.53;;;18.34;90.83
58843;BME280;44614;54.356;10.100;2022-08-19T01:38:51;100959.00;;;18.32;91.13
58843;BME280;44614;54.356;10.100;2022-08-19T01:41:17;100968.41;;;18.31;91.59
58843;BME280;44614;54.356;10.100;2022-08-19T01:43:43;100959.25;;;18.31;91.76
58843;BME280;44614;54.356;10.100;2022-08-19T01:46:09;100954.25;;;18.33;91.72
58843;BME280;44614;54.356;10.100;2022-08-19T01:48:39;100960.66;;;18.33;91.51
58843;BME280;44614;54.356;10.100;2022-08-19T01:51:09;100969.53;;;18.35;91.17
58843;BME280;44614;54.356;10.100;2022-08-19T01:53:35;100932.50;;;18.19;91.09
58843;BME280;44614;54.356;10.100;2022-08-19T01:56:00;100953.44;;;18.37;91.40
58843;BME280;44614;54.356;10.100;2022-08-19T01:58:32;100956.22;;;18.37;91.43
58843;BME280;44614;54.356;10.100;2022-08-19T02:01:01;100954.56;;;18.36;91.59
58843;BME280;44614;54.356;10.100;2022-08-19T02:03:27;100922.81;;;18.22;91.63
58843;BME280;44614;54.356;10.100;2022-08-19T02:06:00;100938.69;;;18.37;91.43
58843;BME280;44614;54.356;10.100;2022-08-19T02:08:27;100949.53;;;18.28;92.21
58843;BME280;44614;54.356;10.100;2022-08-19T02:10:52;100934.22;;;18.31;92.17
58843;BME280;44614;54.356;10.100;2022-08-19T02:13:18;100931.44;;;18.31;92.05
58843;BME280;44614;54.356;10.100;2022-08-19T02:15:43;100930.06;;;18.28;91.95
58843;BME280;44614;54.356;10.100;2022-08-19T02:18:09;100929.50;;;18.31;92.24
58843;BME280;44614;54.356;10.100;2022-08-19T02:20:35;100923.69;;;18.33;92.40
58843;BME280;44614;54.356;10.100;2022-08-19T02:23:01;100918.13;;;18.33;92.49
58843;BME280;44614;54.356;10.100;2022-08-19T02:25:27;100908.38;;;18.30;92.48
58843;BME280;44614;54.356;10.100;2022-08-19T02:27:52;100910.03;;;18.31;92.58
58843;BME280;44614;54.356;10.100;2022-08-19T02:30:19;100913.69;;;18.32;92.69
58843;BME280;44614;54.356;10.100;2022-08-19T02:32:45;100927.00;;;18.30;92.61
58843;BME280;44614;54.356;10.100;2022-08-19T02:35:13;100920.03;;;18.27;92.87
58843;BME280;44614;54.356;10.100;2022-08-19T02:37:40;100931.44;;;18.25;92.81
58843;BME280;44614;54.356;10.100;2022-08-19T02:40:24;100928.38;;;18.27;92.71
58843;BME280;44614;54.356;10.100;2022-08-19T02:42:49;100922.81;;;18.27;92.65
58843;BME280;44614;54.356;10.100;2022-08-19T02:45:15;100915.03;;;18.29;92.46
58843;BME280;44614;54.356;10.100;2022-08-19T02:47:41;100914.22;;;18.29;92.48
58843;BME280;44614;54.356;10.100;2022-08-19T02:50:07;100913.09;;;18.24;93.07
58843;BME280;44614;54.356;10.100;2022-08-19T02:52:33;100922.25;;;18.25;93.09
58843;BME280;44614;54.356;10.100;2022-08-19T02:54:59;100925.28;;;18.23;94.86
58843;BME280;44614;54.356;10.100;2022-08-19T02:57:25;100920.84;;;18.22;94.34
58843;BME280;44614;54.356;10.100;2022-08-19T02:59:51;100922.50;;;18.23;94.05
58843;BME280;44614;54.356;10.100;2022-08-19T03:02:16;100930.31;;;18.21;93.92
58843;BME280;44614;54.356;10.100;2022-08-19T03:04:42;100925.88;;;18.25;93.35
58843;BME280;44614;54.356;10.100;2022-08-19T03:07:08;100912.81;;;18.26;93.44
58843;BME280;44614;54.356;10.100;2022-08-19T03:09:37;100922.56;;;18.29;92.63
58843;BME280;44614;54.356;10.100;2022-08-19T03:12:05;100910.31;;;18.30;92.66
58843;BME280;44614;54.356;10.100;2022-08-19T03:14:32;100920.31;;;18.31;92.67
58843;BME280;44614;54.356;10.100;2022-08-19T03:16:58;100921.72;;;18.33;92.58
58843;BME280;44614;54.356;10.100;2022-08-19T03:19:23;100924.50;;;18.33;92.67
58843;BME280;44614;54.356;10.100;2022-08-19T03:21:49;100923.69;;;18.33;92.85
58843;BME280;44614;54.356;10.100;2022-08-19T03:24:17;100929.78;;;18.35;92.55
58843;BME280;44614;54.356;10.100;2022-08-19T03:26:46;100928.94;;;18.29;93.00
58843;BME280;44614;54.356;10.100;2022-08-19T03:29:13;100935.03;;;18.26;93.20
58843;BME280;44614;54.356;10.100;2022-08-19T03:31:40;100935.34;;;18.35;92.68
58843;BME280;44614;54.356;10.100;2022-08-19T03:34:06;100933.97;;;18.37;92.78
58843;BME280;44614;54.356;10.100;2022-08-19T03:36:32;100925.94;;;18.41;92.55
58843;BME280;44614;54.356;10.100;2022-08-19T03:39:00;100933.44;;;18.40;92.50
58843;BME280;44614;54.356;10.100;2022-08-19T03:41:28;100933.69;;;18.39;92.53
58843;BME280;44614;54.356;10.100;2022-08-19T03:43:55;100928.69;;;18.41;92.77
58843;BME280;44614;54.356;10.100;2022-08-19T03:46:24;100926.47;;;18.43;92.69
58843;BME280;44614;54.356;10.100;2022-08-19T03:48:51;100910.31;;;18.30;92.86
58843;BME280;44614;54.356;10.100;2022-08-19T03:53:51;100943.72;;;18.45;92.55
58843;BME280;44614;54.356;10.100;2022-08-19T03:56:16;100952.06;;;18.45;93.77
58843;BME280;44614;54.356;10.100;2022-08-19T03:58:43;100908.59;;;18.13;93.25
58843;BME280;44614;54.356;10.100;2022-08-19T04:01:09;100961.25;;;18.45;94.11
58843;BME280;44614;54.356;10.100;2022-08-19T04:03:35;100965.97;;;18.45;93.26
58843;BME280;44614;54.356;10.100;2022-08-19T04:06:14;100964.59;;;18.47;92.79
58843;BME280;44614;54.356;10.100;2022-08-19T04:08:41;100957.34;;;18.41;92.37
58843;BME280;44614;54.356;10.100;2022-08-19T04:11:13;100974.91;;;18.52;91.96
58843;BME280;44614;54.356;10.100;2022-08-19T04:13:40;100971.00;;;18.48;92.32
58843;BME280;44614;54.356;10.100;2022-08-19T04:16:08;100950.94;;;18.36;92.34
58843;BME280;44614;54.356;10.100;2022-08-19T04:18:35;100974.31;;;18.50;92.32
58843;BME280;44614;54.356;10.100;2022-08-19T04:21:01;100973.78;;;18.53;92.22
58843;BME280;44614;54.356;10.100;2022-08-19T04:23:26;100979.34;;;18.53;92.29
58843;BME280;44614;54.356;10.100;2022-08-19T04:25:53;100987.41;;;18.49;92.93
58843;BME280;44614;54.356;10.100;2022-08-19T04:28:19;100983.25;;;18.47;93.26
58843;BME280;44614;54.356;10.100;2022-08-19T04:30:47;100995.19;;;18.47;93.16
58843;BME280;44614;54.356;10.100;2022-08-19T04:33:14;100996.03;;;18.48;93.26
58843;BME280;44614;54.356;10.100;2022-08-19T04:35:44;101002.69;;;18.47;93.27
58843;BME280;44614;54.356;10.100;2022-08-19T04:38:11;100994.06;;;18.43;93.22
58843;BME280;44614;54.356;10.100;2022-08-19T04:40:41;101002.69;;;18.47;93.19
58843;BME280;44614;54.356;10.100;2022-08-19T04:43:26;100994.91;;;18.49;93.39
58843;BME280;44614;54.356;10.100;2022-08-19T04:45:51;100999.34;;;18.50;93.36
58843;BME280;44614;54.356;10.100;2022-08-19T04:48:17;100996.31;;;18.51;93.19
58843;BME280;44614;54.356;10.100;2022-08-19T04:50:52;100998.56;;;18.55;92.89
58843;BME280;44614;54.356;10.100;2022-08-19T04:53:23;101001.59;;;18.58;92.33
58843;BME280;44614;54.356;10.100;2022-08-19T04:55:48;101001.34;;;18.55;93.02
58843;BME280;44614;54.356;10.100;2022-08-19T04:58:13;101000.19;;;18.50;93.53
58843;BME280;44614;54.356;10.100;2022-08-19T05:00:39;101000.47;;;18.44;93.22
58843;BME280;44614;54.356;10.100;2022-08-19T05:03:05;101014.69;;;18.58;93.10
58843;BME280;44614;54.356;10.100;2022-08-19T05:05:30;101010.50;;;18.55;92.96
58843;BME280;44614;54.356;10.100;2022-08-19T05:07:56;101013.03;;;18.62;92.87
58843;BME280;44614;54.356;10.100;2022-08-19T05:10:21;101008.31;;;18.62;92.51
58843;BME280;44614;54.356;10.100;2022-08-19T05:12:47;101017.22;;;18.64;92.83
58843;BME280;44614;54.356;10.100;2022-08-19T05:15:12;101006.09;;;18.64;92.72
58843;BME280;44614;54.356;10.100;2022-08-19T05:17:38;101011.66;;;18.64;92.81
58843;BME280;44614;54.356;10.100;2022-08-19T05:20:23;101012.47;;;18.65;93.22
58843;BME280;44614;54.356;10.100;2022-08-19T05:23:07;101011.34;;;18.61;93.45
58843;BME280;44614;54.356;10.100;2022-08-19T05:25:39;100981.00;;;18.44;93.21
58843;BME280;44614;54.356;10.100;2022-08-19T05:28:04;101012.19;;;18.61;93.22
58843;BME280;44614;54.356;10.100;2022-08-19T05:30:29;101008.31;;;18.62;93.63
58843;BME280;44614;54.356;10.100;2022-08-19T05:32:55;101007.75;;;18.65;93.55
58843;BME280;44614;54.356;10.100;2022-08-19T05:35:20;101011.94;;;18.68;93.20
58843;BME280;44614;54.356;10.100;2022-08-19T05:37:46;101020.28;;;18.63;93.79
58843;BME280;44614;54.356;10.100;2022-08-19T05:40:11;101013.31;;;18.65;93.78
58843;BME280;44614;54.356;10.100;2022-08-19T05:42:37;101010.28;;;18.67;93.29
58843;BME280;44614;54.356;10.100;2022-08-19T05:45:03;101028.63;;;18.68;93.59
58843;BME280;44614;54.356;10.100;2022-08-19T05:47:29;101030.59;;;18.67;93.56
58843;BME280;44614;54.356;10.100;2022-08-19T05:49:54;101034.72;;;18.65;94.10
58843;BME280;44614;54.356;10.100;2022-08-19T05:52:20;101034.72;;;18.65;93.60
58843;BME280;44614;54.356;10.100;2022-08-19T05:54:46;101005.22;;;18.54;93.87
58843;BME280;44614;54.356;10.100;2022-08-19T05:57:13;101028.34;;;18.69;93.42
58843;BME280;44614;54.356;10.100;2022-08-19T05:59:38;101028.13;;;18.71;93.60
58843;BME280;44614;54.356;10.100;2022-08-19T06:02:05;101025.06;;;18.72;93.82
58843;BME280;44614;54.356;10.100;2022-08-19T06:04:31;101033.41;;;18.72;93.36
58843;BME280;44614;54.356;10.100;2022-08-19T06:06:57;101029.53;;;18.73;93.93
58843;BME280;44614;54.356;10.100;2022-08-19T06:09:23;101029.25;;;18.75;93.66
58843;BME280;44614;54.356;10.100;2022-08-19T06:11:51;101025.34;;;18.76;93.51
58843;BME280;44614;54.356;10.100;2022-08-19T06:14:24;101018.94;;;18.75;93.38
58843;BME280;44614;54.356;10.100;2022-08-19T06:16:50;101027.88;;;18.78;93.62
58843;BME280;44614;54.356;10.100;2022-08-19T06:19:19;101014.22;;;18.76;93.71
58843;BME280;44614;54.356;10.100;2022-08-19T06:21:47;101026.47;;;18.80;93.53
58843;BME280;44614;54.356;10.100;2022-08-19T06:24:15;101025.94;;;18.83;93.11
58843;BME280;44614;54.356;10.100;2022-08-19T06:26:44;101037.06;;;18.83;93.25
58843;BME280;44614;54.356;10.100;2022-08-19T06:29:12;101022.88;;;18.85;93.18
58843;BME280;44614;54.356;10.100;2022-08-19T06:31:42;101031.22;;;18.85;93.63
58843;BME280;44614;54.356;10.100;2022-08-19T06:34:08;101028.72;;;18.83;93.83
58843;BME280;44614;54.356;10.100;2022-08-19T06:36:36;101010.31;;;18.77;93.86
58843;BME280;44614;54.356;10.100;2022-08-19T06:39:08;101025.09;;;18.88;93.63
58843;BME280;44614;54.356;10.100;2022-08-19T06:41:35;101015.09;;;18.92;93.49
58843;BME280;44614;54.356;10.100;2022-08-19T06:44:02;100983.06;;;18.74;93.18
58843;BME280;44614;54.356;10.100;2022-08-19T06:46:27;101020.69;;;18.97;93.33
58843;BME280;44614;54.356;10.100;2022-08-19T06:48:53;101021.22;;;18.99;93.46
58843;BME280;44614;54.356;10.100;2022-08-19T06:51:20;101015.13;;;19.02;93.42
58843;BME280;44614;54.356;10.100;2022-08-19T06:53:48;101009.28;;;19.04;93.46
58843;BME280;44614;54.356;10.100;2022-08-19T06:56:16;101010.69;;;19.06;93.80
58843;BME280;44614;54.356;10.100;2022-08-19T06:58:41;101012.34;;;19.07;93.63
58843;BME280;44614;54.356;10.100;2022-08-19T07:01:07;101017.09;;;19.12;94.04
58843;BME280;44614;54.356;10.100;2022-08-19T07:03:35;101022.09;;;19.15;94.18
58843;BME280;44614;54.356;10.100;2022-08-19T07:06:10;101023.50;;;19.17;93.80
58843;BME280;44614;54.356;10.100;2022-08-19T07:08:37;101024.34;;;19.23;94.15
58843;BME280;44614;54.356;10.100;2022-08-19T07:11:06;101027.13;;;19.28;93.44
58843;BME280;44614;54.356;10.100;2022-08-19T07:13:32;101024.66;;;19.32;93.53
58843;BME280;44614;54.356;10.100;2022-08-19T07:16:10;101025.19;;;19.34;93.36
58843;BME280;44614;54.356;10.100;2022-08-19T07:18:36;101023.53;;;19.43;93.46
58843;BME280;44614;54.356;10.100;2022-08-19T07:21:08;101039.97;;;19.44;93.71
58843;BME280;44614;54.356;10.100;2022-08-19T07:23:35;101034.38;;;19.49;93.72
58843;BME280;44614;54.356;10.100;2022-08-19T07:26:09;101043.31;;;19.52;93.40
58843;BME280;44614;54.356;10.100;2022-08-19T07:28:35;101055.28;;;19.52;93.32
58843;BME280;44614;54.356;10.100;2022-08-19T07:31:09;101053.06;;;19.54;93.73
58843;BME280;44614;54.356;10.100;2022-08-19T07:33:34;101065.03;;;19.55;93.41
58843;BME280;44614;54.356;10.100;2022-08-19T07:36:03;101048.88;;;19.52;93.75
58843;BME280;44614;54.356;10.100;2022-08-19T07:38:29;101053.06;;;19.54;93.73
58843;BME280;44614;54.356;10.100;2022-08-19T07:40:55;101063.91;;;19.56;93.60
58843;BME280;44614;54.356;10.100;2022-08-19T07:43:20;101044.16;;;19.47;93.71
58843;BME280;44614;54.356;10.100;2022-08-19T07:45:53;101058.63;;;19.54;93.38
58843;BME280;44614;54.356;10.100;2022-08-19T07:48:22;101061.41;;;19.54;93.61
58843;BME280;44614;54.356;10.100;2022-08-19T07:50:51;101061.97;;;19.51;93.96
58843;BME280;44614;54.356;10.100;2022-08-19T07:53:17;101062.22;;;19.49;93.98
58843;BME280;44614;54.356;10.100;2022-08-19T07:55:43;101066.97;;;19.49;94.14
58843;BME280;44614;54.356;10.100;2022-08-19T07:58:09;101063.63;;;19.47;94.16
58843;BME280;44614;54.356;10.100;2022-08-19T08:00:36;101078.69;;;19.46;94.01
58843;BME280;44614;54.356;10.100;2022-08-19T08:03:01;101073.09;;;19.41;94.09
58843;BME280;44614;54.356;10.100;2022-08-19T08:05:27;101075.03;;;19.45;94.74
58843;BME280;44614;54.356;10.100;2022-08-19T08:08:11;101080.34;;;19.47;94.56
58843;BME280;44614;54.356;10.100;2022-08-19T08:11:12;101079.53;;;19.46;94.79
58843;BME280;44614;54.356;10.100;2022-08-19T08:13:38;101075.91;;;19.46;94.32
58843;BME280;44614;54.356;10.100;2022-08-19T08:16:03;101048.00;;;19.31;94.56
58843;BME280;44614;54.356;10.100;2022-08-19T08:18:29;101069.75;;;19.44;94.19
58843;BME280;44614;54.356;10.100;2022-08-19T08:20:55;101077.28;;;19.48;94.36
58843;BME280;44614;54.356;10.100;2022-08-19T08:23:21;101075.63;;;19.47;94.39
58843;BME280;44614;54.356;10.100;2022-08-19T08:25:48;101077.28;;;19.48;94.52
58843;BME280;44614;54.356;10.100;2022-08-19T08:28:14;101080.06;;;19.48;94.84
58843;BME280;44614;54.356;10.100;2022-08-19T08:30:39;101073.94;;;19.46;95.08
58843;BME280;44614;54.356;10.100;2022-08-19T08:33:07;101083.97;;;19.47;94.80
58843;BME280;44614;54.356;10.100;2022-08-19T08:35:32;101093.16;;;19.53;94.58
58843;BME280;44614;54.356;10.100;2022-08-19T08:37:59;101095.13;;;19.58;94.01
58843;BME280;44614;54.356;10.100;2022-08-19T08:40:39;101094.31;;;19.62;93.65
58843;BME280;44614;54.356;10.100;2022-08-19T08:43:33;101089.88;;;19.66;93.81
58843;BME280;44614;54.356;10.100;2022-08-19T08:46:03;101094.06;;;19.69;93.81
58843;BME280;44614;54.356;10.100;2022-08-19T08:51:02;101093.22;;;19.74;93.77
58843;BME280;44614;54.356;10.100;2022-08-19T08:53:28;101098.50;;;19.80;93.87
58843;BME280;44614;54.356;10.100;2022-08-19T08:55:55;101097.97;;;19.88;93.35
58843;BME280;44614;54.356;10.100;2022-08-19T08:58:29;101097.66;;;19.95;93.15
58843;BME280;44614;54.356;10.100;2022-08-19T09:00:55;101110.47;;;20.01;93.47
58843;BME280;44614;54.356;10.100;2022-08-19T09:03:26;101084.84;;;19.94;92.63
58843;BME280;44614;54.356;10.100;2022-08-19T09:06:05;101102.94;;;20.07;92.67
58843;BME280;44614;54.356;10.100;2022-08-19T09:09:04;101102.41;;;20.05;92.64
58843;BME280;44614;54.356;10.100;2022-08-19T09:14:20;101074.53;;;19.94;92.57
58843;BME280;44614;54.356;10.100;2022-08-19T09:16:52;101061.44;;;19.85;92.88
58843;BME280;44614;54.356;10.100;2022-08-19T09:19:17;101104.34;;;20.04;92.94
58843;BME280;44614;54.356;10.100;2022-08-19T09:21:43;101104.06;;;20.01;92.79
58843;BME280;44614;54.356;10.100;2022-08-19T09:24:08;101102.69;;;19.98;92.78
58843;BME280;44614;54.356;10.100;2022-08-19T09:26:33;101105.19;;;20.00;93.02
58843;BME280;44614;54.356;10.100;2022-08-19T09:28:59;101085.69;;;19.89;92.84
58843;BME280;44614;54.356;10.100;2022-08-19T09:31:26;101109.91;;;19.99;92.96
58843;BME280;44614;54.356;10.100;2022-08-19T09:33:52;101109.09;;;19.99;92.99
58843;BME280;44614;54.356;10.100;2022-08-19T09:36:22;101103.78;;;20.02;92.65
58843;BME280;44614;54.356;10.100;2022-08-19T09:38:49;101110.47;;;20.06;92.34
58843;BME280;44614;54.356;10.100;2022-08-19T09:41:17;101111.56;;;20.10;92.06
58843;BME280;44614;54.356;10.100;2022-08-19T09:43:50;101117.44;;;20.14;92.20
58843;BME280;44614;54.356;10.100;2022-08-19T09:46:21;101119.66;;;20.17;92.16
58843;BME280;44614;54.356;10.100;2022-08-19T09:48:48;101101.25;;;20.11;91.92
58843;BME280;44614;54.356;10.100;2022-08-19T09:51:14;101113.56;;;20.15;91.98
58843;BME280;44614;54.356;10.100;2022-08-19T09:53:44;101116.59;;;20.13;92.22
58843;BME280;44614;54.356;10.100;2022-08-19T09:56:10;101115.22;;;20.16;92.16
58843;BME280;44614;54.356;10.100;2022-08-19T09:58:37;101091.25;;;19.89;91.63
58843;BME280;44614;54.356;10.100;2022-08-19T10:01:04;101115.47;;;20.14;91.66
58843;BME280;44614;54.356;10.100;2022-08-19T10:03:30;101112.13;;;20.17;92.05
58843;BME280;44614;54.356;10.100;2022-08-19T10:05:56;101116.03;;;20.16;91.76
58843;BME280;44614;54.356;10.100;2022-08-19T10:08:26;101089.28;;;20.10;91.73
58843;BME280;44614;54.356;10.100;2022-08-19T10:10:52;101116.59;;;20.24;91.31
58843;BME280;44614;54.356;10.100;2022-08-19T10:13:20;101111.03;;;20.24;91.26
58843;BME280;44614;54.356;10.100;2022-08-19T10:15:51;101111.84;;;20.29;91.48
58843;BME280;44614;54.356;10.100;2022-08-19T10:18:19;101121.03;;;20.35;91.14
58843;BME280;44614;54.356;10.100;2022-08-19T10:20:46;101105.97;;;20.36;90.70
58843;BME280;44614;54.356;10.100;2022-08-19T10:23:12;101115.69;;;20.49;90.64
58843;BME280;44614;54.356;10.100;2022-08-19T10:25:38;101119.34;;;20.54;90.07
58843;BME280;44614;54.356;10.100;2022-08-19T10:28:04;101115.72;;;20.54;90.41
58843;BME280;44614;54.356;10.100;2022-08-19T10:30:31;101114.91;;;20.53;89.98
58843;BME280;44614;54.356;10.100;2022-08-19T10:32:56;101116.84;;;20.58;90.33
58843;BME280;44614;54.356;10.100;2022-08-19T10:35:22;101121.00;;;20.60;90.10
58843;BME280;44614;54.356;10.100;2022-08-19T10:37:47;101116.53;;;20.64;90.26
58843;BME280;44614;54.356;10.100;2022-08-19T10:40:13;101119.31;;;20.69;90.02
58843;BME280;44614;54.356;10.100;2022-08-19T10:42:38;101110.06;;;20.74;89.70
58843;BME280;44614;54.356;10.100;2022-08-19T10:45:05;101108.69;;;20.77;90.02
58843;BME280;44614;54.356;10.100;2022-08-19T10:47:32;101035.66;;;20.44;89.53
58843;BME280;44614;54.356;10.100;2022-08-19T10:49:58;101106.09;;;20.96;89.53
58843;BME280;44614;54.356;10.100;2022-08-19T10:52:44;101099.03;;;21.08;88.92
58843;BME280;44614;54.356;10.100;2022-08-19T10:55:09;101096.81;;;21.10;88.96
58843;BME280;44614;54.356;10.100;2022-08-19T10:57:53;101098.47;;;21.11;88.76
58843;BME280;44614;54.356;10.100;2022-08-19T11:00:20;101098.16;;;21.13;88.72
58843;BME280;44614;54.356;10.100;2022-08-19T11:02:47;101091.75;;;21.12;89.22
58843;BME280;44614;54.356;10.100;2022-08-19T11:05:13;101056.94;;;20.94;89.09
58843;BME280;44614;54.356;10.100;2022-08-19T11:07:40;101075.03;;;21.07;88.70
58843;BME280;44614;54.356;10.100;2022-08-19T11:10:08;101099.50;;;21.26;88.83
58843;BME280;44614;54.356;10.100;2022-08-19T11:12:36;101099.78;;;21.29;88.74
58843;BME280;44614;54.356;10.100;2022-08-19T11:15:04;101094.50;;;21.23;88.49
58843;BME280;44614;54.356;10.100;2022-08-19T11:17:29;101098.38;;;21.27;88.83
58843;BME280;44614;54.356;10.100;2022-08-19T11:19:56;101102.81;;;21.38;88.35
58843;BME280;44614;54.356;10.100;2022-08-19T11:22:22;101091.63;;;21.38;88.18
58843;BME280;44614;54.356;10.100;2022-08-19T11:24:47;101097.19;;;21.43;88.24
58843;BME280;44614;54.356;10.100;2022-08-19T11:27:12;101093.75;;;21.56;87.73
58843;BME280;44614;54.356;10.100;2022-08-19T11:29:39;101094.34;;;21.48;86.57
58843;BME280;44614;54.356;10.100;2022-08-19T11:32:07;101100.28;;;21.41;87.86
58843;BME280;44614;54.356;10.100;2022-08-19T11:34:34;101088.81;;;21.43;88.35
58843;BME280;44614;54.356;10.100;2022-08-19T11:37:00;101096.34;;;21.42;87.17
58843;BME280;44614;54.356;10.100;2022-08-19T11:39:29;101042.16;;;20.94;88.39
58843;BME280;44614;54.356;10.100;2022-08-19T11:41:57;101101.16;;;21.37;89.13
58843;BME280;44614;54.356;10.100;2022-08-19T11:44:23;101093.81;;;21.46;88.46
58843;BME280;44614;54.356;10.100;2022-08-19T11:46:48;101096.81;;;21.55;88.34
58843;BME280;44614;54.356;10.100;2022-08-19T11:49:16;101086.78;;;21.54;87.76
58843;BME280;44614;54.356;10.100;2022-08-19T11:51:43;101089.81;;;21.57;87.80
58843;BME280;44614;54.356;10.100;2022-08-19T11:54:11;101081.41;;;21.62;87.54
58843;BME280;44614;54.356;10.100;2022-08-19T11:56:38;101075.34;;;21.50;87.53
58843;BME280;44614;54.356;10.100;2022-08-19T11:59:03;101087.22;;;21.66;87.54
58843;BME280;44614;54.356;10.100;2022-08-19T12:01:28;101090.34;;;21.64;87.04
58843;BME280;44614;54.356;10.100;2022-08-19T12:03:55;101098.72;;;21.59;87.30
58843;BME280;44614;54.356;10.100;2022-08-19T12:06:24;101089.28;;;21.55;87.33
58843;BME280;44614;54.356;10.100;2022-08-19T12:08:55;101102.13;;;21.56;87.27
58843;BME280;44614;54.356;10.100;2022-08-19T12:11:21;101076.53;;;21.39;87.54
58843;BME280;44614;54.356;10.100;2022-08-19T12:13:47;101096.03;;;21.49;87.45
58843;BME280;44614;54.356;10.100;2022-08-19T12:16:17;101099.41;;;21.46;87.41
58843;BME280;44614;54.356;10.100;2022-08-19T12:18:43;101103.28;;;21.50;87.64
58843;BME280;44614;54.356;10.100;2022-08-19T12:21:12;101096.59;;;21.46;87.19
58843;BME280;44614;54.356;10.100;2022-08-19T12:23:39;101098.25;;;21.52;87.13
58843;BME280;44614;54.356;10.100;2022-08-19T12:26:05;101101.06;;;21.52;86.94
58843;BME280;44614;54.356;10.100;2022-08-19T12:28:30;101102.19;;;21.46;86.84
58843;BME280;44614;54.356;10.100;2022-08-19T12:30:56;101100.28;;;21.36;87.16
58843;BME280;44614;54.356;10.100;2022-08-19T12:33:22;101103.34;;;21.40;87.67
58843;BME280;44614;54.356;10.100;2022-08-19T12:35:50;101099.72;;;21.45;87.28
58843;BME280;44614;54.356;10.100;2022-08-19T12:38:16;101103.59;;;21.49;86.77
58843;BME280;44614;54.356;10.100;2022-08-19T12:40:45;101096.03;;;21.49;86.59
58843;BME280;44614;54.356;10.100;2022-08-19T12:43:11;101100.50;;;21.50;86.53
58843;BME280;44614;54.356;10.100;2022-08-19T12:45:36;101092.69;;;21.47;86.63
58843;BME280;44614;54.356;10.100;2022-08-19T12:48:03;101082.13;;;21.39;86.80
58843;BME280;44614;54.356;10.100;2022-08-19T12:50:29;101117.25;;;21.50;86.79